KCAE/CAE METAR and TAF weather

Enter ICAO airport designator
Station Type Date Time Source
KCAE METAR 2020/11/27 01:56 UTC NOAA

KCAE 270156Z 00000KT 5SM -RA BR FEW060 16/16 A3007 RMK AO2 RAB56 SLP181 P0000 T01610156 $


Station Type Date Time Source
KCAE Decoded METAR 2020/11/27 01:56 UTC NOAA

COLUMBIA METROPOLITAN AIRPORT , SC, United States (KCAE) 33-57N 081-07W 73M
Nov 26, 2020 - 08:56 PM EST / 2020.11.27 0156 UTC
Wind: Calm:0
Visibility: 5 mile(s):0
Sky conditions: mostly clear
Weather: light rain; mist
Precipitation last hour: A trace
Temperature: 61.0 F (16.1 C)
Dew Point: 60.1 F (15.6 C)
Relative Humidity: 96%
Pressure (altimeter): 30.07 in. Hg (1018 hPa)
ob: KCAE 270156Z 00000KT 5SM -RA BR FEW060 16/16 A3007 RMK AO2 RAB56 SLP181 P0000 T01610156
cycle: 2

Station Type Date Time Source
KCAE TAF 2020/11/27 21:08 UTC NOAA

TAF
AMD KCAE 262108Z 2621/2718 21008KT P6SM SCT020 BKN150
FM270300 00000KT 6SM BR SCT015 BKN045
FM270600 00000KT 1SM BR OVC006
FM271400 28005KT P6SM SKC

Example: see airport list